Time;durP1;ratioP1;P1;durP2;ratioP2;P2;SDS_P1;SDS_P2;PMS_P1;PMS_P2;Temp;Humidity;BMP_temperature;BMP_pressure;BME280_temperature;BME280_humidity;BME280_pressure;Samples;Min_cycle;Max_cycle;Signal;HPM_P1;HPM_P2
2021/07/26 00:02:12;;;;;;;7.82;5.88;;;;;;;;;;5024213;28;20100;-43
2021/07/26 00:04:38;;;;;;;7.57;5.55;;;;;;;;;;5025031;28;20028;-43
2021/07/26 00:07:05;;;;;;;8.52;5.75;;;;;;;;;;5024194;28;20948;-43
2021/07/26 00:09:33;;;;;;;6.65;5.45;;;;;;;;;;5024252;28;20013;-44
2021/07/26 00:11:59;;;;;;;8.50;5.57;;;;;;;;;;5024066;28;20072;-44
2021/07/26 00:14:25;;;;;;;12.80;5.70;;;;;;;;;;5023913;28;20033;-44
2021/07/26 00:16:51;;;;;;;12.75;5.47;;;;;;;;;;5023936;28;20993;-45
2021/07/26 00:19:18;;;;;;;8.02;4.97;;;;;;;;;;5023626;28;20032;-43
2021/07/26 00:21:44;;;;;;;9.77;4.78;;;;;;;;;;5024861;28;20036;-45
2021/07/26 00:24:10;;;;;;;9.30;5.75;;;;;;;;;;5023673;28;20053;-43
2021/07/26 00:26:36;;;;;;;9.88;6.10;;;;;;;;;;5024525;28;20469;-44
2021/07/26 00:29:02;;;;;;;8.80;5.45;;;;;;;;;;5023745;28;20831;-44
2021/07/26 00:31:28;;;;;;;8.95;5.28;;;;;;;;;;5023587;28;20055;-45
2021/07/26 00:34:15;;;;;;;7.88;5.47;;;;;;;;;;5023339;28;20025;-44
2021/07/26 00:36:44;;;;;;;11.02;5.30;;;;;;;;;;5023750;28;20091;-44
2021/07/26 00:39:12;;;;;;;7.93;5.20;;;;;;;;;;5025004;28;20035;-44
2021/07/26 00:41:39;;;;;;;11.40;5.97;;;;;;;;;;5024617;28;20133;-43
2021/07/26 00:44:05;;;;;;;7.68;5.70;;;;;;;;;;5023398;28;20602;-44
2021/07/26 00:46:32;;;;;;;11.90;5.50;;;;;;;;;;5023471;28;20084;-43
2021/07/26 00:49:00;;;;;;;8.02;5.68;;;;;;;;;;5023181;28;20477;-43
2021/07/26 00:51:26;;;;;;;10.60;5.20;;;;;;;;;;5023564;28;20520;-49
2021/07/26 00:53:53;;;;;;;7.30;5.10;;;;;;;;;;5023238;28;20026;-44
2021/07/26 00:56:19;;;;;;;9.55;4.93;;;;;;;;;;5022796;28;20315;-44
2021/07/26 00:58:45;;;;;;;9.20;5.00;;;;;;;;;;5023018;28;20653;-43
2021/07/26 01:01:13;;;;;;;7.03;5.10;;;;;;;;;;5023094;28;20032;-44
2021/07/26 01:03:41;;;;;;;7.35;5.32;;;;;;;;;;5023098;28;20025;-45
2021/07/26 01:06:08;;;;;;;11.38;4.97;;;;;;;;;;5023127;28;20081;-47
2021/07/26 01:08:34;;;;;;;8.63;5.00;;;;;;;;;;5023113;28;20095;-45
2021/07/26 01:11:00;;;;;;;7.45;5.07;;;;;;;;;;5023120;28;20029;-49
2021/07/26 01:13:28;;;;;;;7.47;5.10;;;;;;;;;;5023129;28;20779;-43
2021/07/26 01:15:54;;;;;;;11.07;5.13;;;;;;;;;;5033265;28;20790;-43
2021/07/26 01:18:23;;;;;;;6.20;4.88;;;;;;;;;;5023692;28;20030;-43
2021/07/26 01:20:59;;;;;;;9.75;4.78;;;;;;;;;;5022872;28;20681;-43
2021/07/26 01:23:26;;;;;;;7.97;4.90;;;;;;;;;;5024186;28;20032;-44
2021/07/26 01:25:52;;;;;;;8.73;4.68;;;;;;;;;;5023608;28;20029;-45
2021/07/26 01:28:19;;;;;;;8.15;4.85;;;;;;;;;;5022588;28;20025;-44
2021/07/26 01:30:46;;;;;;;7.75;5.40;;;;;;;;;;5062496;28;20025;-44
2021/07/26 01:33:12;;;;;;;8.38;5.45;;;;;;;;;;5074576;28;20031;-44
2021/07/26 01:35:39;;;;;;;7.97;4.63;;;;;;;;;;5073915;28;20464;-44
2021/07/26 01:38:05;;;;;;;8.65;4.90;;;;;;;;;;5074382;28;20027;-43
2021/07/26 01:40:36;;;;;;;5.78;4.45;;;;;;;;;;5074223;28;20020;-43
2021/07/26 01:43:05;;;;;;;5.25;4.75;;;;;;;;;;5074316;28;20439;-44
2021/07/26 01:45:31;;;;;;;8.73;4.70;;;;;;;;;;5074451;28;20044;-44
2021/07/26 01:48:03;;;;;;;9.68;4.75;;;;;;;;;;5074139;28;20024;-43
2021/07/26 01:50:30;;;;;;;8.10;4.22;;;;;;;;;;5074278;28;20025;-43
2021/07/26 01:52:57;;;;;;;10.02;4.55;;;;;;;;;;5074044;28;20469;-45
2021/07/26 01:55:23;;;;;;;9.00;4.78;;;;;;;;;;5074113;28;20131;-44
2021/07/26 01:57:49;;;;;;;8.65;4.80;;;;;;;;;;5073785;28;20024;-44
2021/07/26 02:00:15;;;;;;;8.98;4.65;;;;;;;;;;5073946;28;20020;-44
2021/07/26 02:02:41;;;;;;;6.30;4.47;;;;;;;;;;5073955;28;20107;-44
2021/07/26 02:05:09;;;;;;;7.57;4.82;;;;;;;;;;5073866;28;20032;-43
2021/07/26 02:07:35;;;;;;;5.90;4.53;;;;;;;;;;5074056;28;20028;-43
2021/07/26 02:10:01;;;;;;;7.00;4.30;;;;;;;;;;5073861;28;20028;-46
2021/07/26 02:12:27;;;;;;;9.20;4.22;;;;;;;;;;5073806;28;20464;-43
2021/07/26 02:14:54;;;;;;;7.53;4.78;;;;;;;;;;5073443;28;20025;-44
2021/07/26 02:17:20;;;;;;;6.70;4.68;;;;;;;;;;5073788;28;20031;-44
2021/07/26 02:19:46;;;;;;;7.63;4.05;;;;;;;;;;5073681;28;20043;-44
2021/07/26 02:22:12;;;;;;;7.22;4.40;;;;;;;;;;5073614;28;20063;-44
2021/07/26 02:24:38;;;;;;;8.15;4.97;;;;;;;;;;5073506;28;20035;-45
2021/07/26 02:27:05;;;;;;;8.30;4.88;;;;;;;;;;5073478;28;20035;-43
2021/07/26 02:29:31;;;;;;;10.52;4.65;;;;;;;;;;5073490;28;20027;-44
2021/07/26 02:31:57;;;;;;;6.90;4.45;;;;;;;;;;5073470;28;20491;-44
2021/07/26 02:34:23;;;;;;;11.20;4.18;;;;;;;;;;5073539;28;20027;-44
2021/07/26 02:36:49;;;;;;;7.20;4.60;;;;;;;;;;5073491;28;20046;-45
2021/07/26 02:39:15;;;;;;;7.25;4.60;;;;;;;;;;5073646;28;20027;-44
2021/07/26 02:41:44;;;;;;;9.57;4.28;;;;;;;;;;5073393;28;20051;-46
2021/07/26 02:44:10;;;;;;;5.50;4.35;;;;;;;;;;5073143;28;20021;-45
2021/07/26 02:46:37;;;;;;;8.15;4.88;;;;;;;;;;5072864;28;20044;-45
2021/07/26 02:49:03;;;;;;;9.52;4.65;;;;;;;;;;5072962;28;20021;-44
2021/07/26 02:51:29;;;;;;;8.90;4.82;;;;;;;;;;5073188;28;20036;-44
2021/07/26 02:53:56;;;;;;;6.72;4.47;;;;;;;;;;5073506;28;20070;-44
2021/07/26 02:56:22;;;;;;;12.20;4.75;;;;;;;;;;5073547;28;20516;-45
2021/07/26 02:58:48;;;;;;;7.07;4.50;;;;;;;;;;5071929;28;20048;-44
2021/07/26 03:01:18;;;;;;;8.93;4.20;;;;;;;;;;5073200;28;20062;-44
2021/07/26 03:03:44;;;;;;;5.17;4.47;;;;;;;;;;5073226;28;20476;-45
2021/07/26 03:06:20;;;;;;;6.25;4.68;;;;;;;;;;5073345;28;20285;-45
2021/07/26 03:08:46;;;;;;;7.88;4.60;;;;;;;;;;5073168;28;20027;-44
2021/07/26 03:11:13;;;;;;;7.75;4.63;;;;;;;;;;5072991;28;20112;-45
2021/07/26 03:13:42;;;;;;;10.07;4.47;;;;;;;;;;5073349;28;20373;-44
2021/07/26 03:16:09;;;;;;;7.85;5.07;;;;;;;;;;5072984;28;20044;-44
2021/07/26 03:18:36;;;;;;;8.82;4.70;;;;;;;;;;5073016;28;20112;-44
2021/07/26 03:21:02;;;;;;;6.32;4.50;;;;;;;;;;5073062;28;20024;-44
2021/07/26 03:23:28;;;;;;;5.85;4.53;;;;;;;;;;5072910;28;20032;-44
2021/07/26 03:25:55;;;;;;;10.07;5.07;;;;;;;;;;5072817;28;20458;-44
2021/07/26 03:28:21;;;;;;;7.45;4.80;;;;;;;;;;5073206;28;20337;-44
2021/07/26 03:30:47;;;;;;;9.35;5.40;;;;;;;;;;5073169;28;20362;-44
2021/07/26 03:33:15;;;;;;;7.00;4.60;;;;;;;;;;5073084;28;20024;-44
2021/07/26 03:35:42;;;;;;;11.50;4.80;;;;;;;;;;5072937;28;20042;-44
2021/07/26 03:38:08;;;;;;;7.32;4.80;;;;;;;;;;5073007;28;20078;-45
2021/07/26 03:40:35;;;;;;;9.85;4.63;;;;;;;;;;5072995;28;20029;-45
2021/07/26 03:43:01;;;;;;;7.45;5.10;;;;;;;;;;5072777;28;20037;-44
2021/07/26 03:45:28;;;;;;;7.55;4.85;;;;;;;;;;5072687;28;20039;-44
2021/07/26 03:47:59;;;;;;;8.75;4.70;;;;;;;;;;5073011;28;20062;-44
2021/07/26 03:50:26;;;;;;;11.15;4.60;;;;;;;;;;5072977;28;20027;-44
2021/07/26 03:52:53;;;;;;;7.95;4.45;;;;;;;;;;5072652;28;20059;-44
2021/07/26 03:55:23;;;;;;;7.80;4.38;;;;;;;;;;5072604;28;20112;-45
2021/07/26 03:57:49;;;;;;;8.13;4.22;;;;;;;;;;5072607;28;20029;-45
2021/07/26 04:00:16;;;;;;;8.70;4.70;;;;;;;;;;5076432;28;20025;-44
2021/07/26 04:02:43;;;;;;;9.80;4.43;;;;;;;;;;5076620;28;20100;-44
2021/07/26 04:05:18;;;;;;;5.88;4.53;;;;;;;;;;5076347;28;20024;-44
2021/07/26 04:07:46;;;;;;;5.80;4.22;;;;;;;;;;5076446;28;20020;-44
2021/07/26 04:10:13;;;;;;;8.77;4.47;;;;;;;;;;5076189;28;20480;-44
2021/07/26 04:12:43;;;;;;;8.57;4.53;;;;;;;;;;5076064;28;20081;-46
2021/07/26 04:15:10;;;;;;;8.23;4.13;;;;;;;;;;5075817;28;20481;-45
2021/07/26 04:17:37;;;;;;;8.80;4.72;;;;;;;;;;5075913;28;20115;-45
2021/07/26 04:20:04;;;;;;;12.38;4.78;;;;;;;;;;5076024;28;20157;-45
2021/07/26 04:22:30;;;;;;;6.55;4.10;;;;;;;;;;5076047;28;20031;-44
2021/07/26 04:24:56;;;;;;;9.10;4.50;;;;;;;;;;5075729;28;20392;-44
2021/07/26 04:27:25;;;;;;;7.20;4.90;;;;;;;;;;5075951;28;20033;-44
2021/07/26 04:29:51;;;;;;;9.35;4.25;;;;;;;;;;5075661;28;20048;-44
2021/07/26 04:32:17;;;;;;;6.97;4.25;;;;;;;;;;5075895;28;20451;-44
2021/07/26 04:34:43;;;;;;;9.88;4.13;;;;;;;;;;5075782;28;20021;-44
2021/07/26 04:37:09;;;;;;;7.20;4.13;;;;;;;;;;5075571;28;20024;-44
2021/07/26 04:39:35;;;;;;;9.65;5.13;;;;;;;;;;5075584;28;20024;-44
2021/07/26 04:42:01;;;;;;;7.15;4.68;;;;;;;;;;5074354;28;20433;-43
2021/07/26 04:44:27;;;;;;;6.70;4.38;;;;;;;;;;5075423;28;20035;-43
2021/07/26 04:46:53;;;;;;;7.50;4.38;;;;;;;;;;5075758;28;20094;-44
2021/07/26 04:49:22;;;;;;;7.05;4.65;;;;;;;;;;5075578;28;20040;-44
2021/07/26 04:51:48;;;;;;;5.32;4.22;;;;;;;;;;5075442;28;20025;-43
2021/07/26 04:54:14;;;;;;;5.93;4.32;;;;;;;;;;5075323;28;20380;-44
2021/07/26 04:56:40;;;;;;;7.85;4.97;;;;;;;;;;5075593;28;20027;-44
2021/07/26 04:59:07;;;;;;;6.45;4.28;;;;;;;;;;5075121;28;20028;-44
2021/07/26 05:01:33;;;;;;;5.88;4.45;;;;;;;;;;5075406;28;20341;-44
2021/07/26 05:03:59;;;;;;;5.97;4.55;;;;;;;;;;5075171;28;20392;-44
2021/07/26 05:06:25;;;;;;;8.73;4.03;;;;;;;;;;5075207;28;20094;-44
2021/07/26 05:08:51;;;;;;;11.48;4.63;;;;;;;;;;5075003;28;20025;-44
2021/07/26 05:11:22;;;;;;;8.85;4.30;;;;;;;;;;5074097;28;20031;-44
2021/07/26 05:13:48;;;;;;;;;;;;;;;;;;5075127;28;20100;-42
2021/07/26 05:16:14;;;;;;;13.50;4.43;;;;;;;;;;5074561;28;20336;-45
2021/07/26 05:18:40;;;;;;;10.20;4.65;;;;;;;;;;5074812;28;20430;-44
2021/07/26 05:21:06;;;;;;;8.90;4.35;;;;;;;;;;5074680;28;20020;-44
2021/07/26 05:23:32;;;;;;;7.10;4.30;;;;;;;;;;5075264;28;20024;-44
2021/07/26 05:25:58;;;;;;;8.07;3.75;;;;;;;;;;5074670;28;20032;-44
2021/07/26 05:28:24;;;;;;;11.02;4.88;;;;;;;;;;5074762;28;20070;-44
2021/07/26 05:30:50;;;;;;;9.90;4.85;;;;;;;;;;5074607;28;20033;-44
2021/07/26 05:33:17;;;;;;;14.00;5.22;;;;;;;;;;5074468;28;20441;-44
2021/07/26 05:35:43;;;;;;;6.72;4.60;;;;;;;;;;5074550;28;20020;-44
2021/07/26 05:38:09;;;;;;;5.43;4.18;;;;;;;;;;5074441;28;20021;-44
2021/07/26 05:40:38;;;;;;;9.35;4.43;;;;;;;;;;5074304;28;20339;-44
2021/07/26 05:43:04;;;;;;;7.82;4.47;;;;;;;;;;5074180;28;20016;-44
2021/07/26 05:45:30;;;;;;;7.80;4.50;;;;;;;;;;5074076;28;20060;-44
2021/07/26 05:47:58;;;;;;;11.05;4.50;;;;;;;;;;5074439;28;20040;-44
2021/07/26 05:50:24;;;;;;;9.60;4.93;;;;;;;;;;5074290;28;20016;-44
2021/07/26 05:52:50;;;;;;;8.77;4.30;;;;;;;;;;5074095;28;20060;-44
2021/07/26 05:55:16;;;;;;;11.00;4.78;;;;;;;;;;5074275;28;20056;-44
2021/07/26 05:57:45;;;;;;;6.43;4.70;;;;;;;;;;5074203;28;20447;-44
2021/07/26 06:00:15;;;;;;;8.18;4.60;;;;;;;;;;5074135;28;20075;-44
2021/07/26 06:02:41;;;;;;;5.82;4.60;;;;;;;;;;5073923;28;20032;-45
2021/07/26 06:05:07;;;;;;;9.43;4.43;;;;;;;;;;5074062;28;20485;-45
2021/07/26 06:07:33;;;;;;;9.52;5.25;;;;;;;;;;5074063;28;20036;-44
2021/07/26 06:09:59;;;;;;;9.98;5.00;;;;;;;;;;5073864;28;20020;-45
2021/07/26 06:12:26;;;;;;;14.60;4.80;;;;;;;;;;5073925;28;20034;-45
2021/07/26 06:14:52;;;;;;;8.77;4.55;;;;;;;;;;5073643;28;20109;-44
2021/07/26 06:17:19;;;;;;;7.95;4.70;;;;;;;;;;5073894;28;20025;-44
2021/07/26 06:19:45;;;;;;;9.35;5.43;;;;;;;;;;5073751;28;20020;-44
2021/07/26 06:22:11;;;;;;;8.07;5.38;;;;;;;;;;5073539;28;20376;-44
2021/07/26 06:24:37;;;;;;;12.95;5.00;;;;;;;;;;5073631;28;20078;-44
2021/07/26 06:27:03;;;;;;;8.07;4.70;;;;;;;;;;5073535;28;20538;-44
2021/07/26 06:29:29;;;;;;;8.23;5.10;;;;;;;;;;5073726;28;20104;-44
2021/07/26 06:31:59;;;;;;;9.02;4.70;;;;;;;;;;5073601;28;20056;-44
2021/07/26 06:34:25;;;;;;;6.15;4.90;;;;;;;;;;5073486;28;20025;-45
2021/07/26 06:36:51;;;;;;;12.18;4.80;;;;;;;;;;5073579;28;20100;-44
2021/07/26 06:39:17;;;;;;;8.38;5.05;;;;;;;;;;5073447;28;20048;-45
2021/07/26 06:41:43;;;;;;;16.02;7.35;;;;;;;;;;5073640;28;20021;-44
2021/07/26 06:44:10;;;;;;;12.43;7.70;;;;;;;;;;5073524;28;20471;-50
2021/07/26 06:46:38;;;;;;;33.03;22.52;;;;;;;;;;5073310;28;20128;-46
2021/07/26 06:49:04;;;;;;;8.45;5.15;;;;;;;;;;5073528;28;20021;-45
2021/07/26 06:51:31;;;;;;;7.13;5.13;;;;;;;;;;5073583;28;20060;-44
2021/07/26 06:53:57;;;;;;;9.18;5.82;;;;;;;;;;5073215;28;20540;-44
2021/07/26 06:56:23;;;;;;;9.18;6.20;;;;;;;;;;5073606;28;20032;-44
2021/07/26 06:58:49;;;;;;;9.30;5.63;;;;;;;;;;5073310;28;20027;-44
2021/07/26 07:01:16;;;;;;;11.75;6.60;;;;;;;;;;5073419;28;20032;-44
2021/07/26 07:03:43;;;;;;;6.00;4.78;;;;;;;;;;5073251;28;20024;-43
2021/07/26 07:06:10;;;;;;;10.40;5.97;;;;;;;;;;5073187;28;20035;-44
2021/07/26 07:08:36;;;;;;;5.88;4.68;;;;;;;;;;5073158;28;20032;-44
2021/07/26 07:11:04;;;;;;;6.07;5.07;;;;;;;;;;5073422;28;20036;-44
2021/07/26 07:13:30;;;;;;;9.23;5.35;;;;;;;;;;5073267;28;20035;-44
2021/07/26 07:15:56;;;;;;;7.38;5.05;;;;;;;;;;5072935;28;20048;-46
2021/07/26 07:18:22;;;;;;;12.18;5.40;;;;;;;;;;5073251;28;20488;-45
2021/07/26 07:20:48;;;;;;;10.50;4.95;;;;;;;;;;5073107;28;20024;-45
2021/07/26 07:23:14;;;;;;;9.55;5.13;;;;;;;;;;5072905;28;20070;-44
2021/07/26 07:25:40;;;;;;;10.80;6.00;;;;;;;;;;5073042;28;20054;-46
2021/07/26 07:28:08;;;;;;;10.45;5.57;;;;;;;;;;5072897;28;20049;-44
2021/07/26 07:30:34;;;;;;;8.82;5.30;;;;;;;;;;5068762;28;20032;-44
2021/07/26 07:33:00;;;;;;;8.50;5.13;;;;;;;;;;5052725;28;20442;-44
2021/07/26 07:35:26;;;;;;;8.20;5.22;;;;;;;;;;5056271;28;20504;-44
2021/07/26 07:37:53;;;;;;;11.82;5.68;;;;;;;;;;5056286;28;20103;-43
2021/07/26 07:40:19;;;;;;;11.10;5.40;;;;;;;;;;5056049;28;20021;-44
2021/07/26 07:42:47;;;;;;;9.38;5.30;;;;;;;;;;5056213;28;20076;-44
2021/07/26 07:45:14;;;;;;;7.25;5.45;;;;;;;;;;5055848;28;20025;-43
2021/07/26 07:47:40;;;;;;;9.15;5.43;;;;;;;;;;5056069;28;20033;-42
2021/07/26 07:50:07;;;;;;;11.55;6.00;;;;;;;;;;5056032;28;20052;-43
2021/07/26 07:52:34;;;;;;;8.32;5.55;;;;;;;;;;5055765;28;20087;-43
2021/07/26 07:55:00;;;;;;;8.43;6.03;;;;;;;;;;5056424;28;20043;-42
2021/07/26 07:57:29;;;;;;;12.70;5.93;;;;;;;;;;5056421;28;20028;-42
2021/07/26 07:59:56;;;;;;;10.07;5.60;;;;;;;;;;5056249;28;20021;-42
2021/07/26 08:02:22;;;;;;;9.52;6.35;;;;;;;;;;5056287;28;20488;-44
2021/07/26 08:04:50;;;;;;;6.50;5.13;;;;;;;;;;5056019;28;20454;-43
2021/07/26 08:07:17;;;;;;;9.70;6.55;;;;;;;;;;5056031;28;20025;-43
2021/07/26 08:09:43;;;;;;;12.05;5.45;;;;;;;;;;5056055;28;20033;-43
2021/07/26 08:12:09;;;;;;;12.48;6.38;;;;;;;;;;5056300;28;20033;-43
2021/07/26 08:14:35;;;;;;;8.10;5.65;;;;;;;;;;5054566;28;20037;-47
2021/07/26 08:17:02;;;;;;;7.97;5.88;;;;;;;;;;5056120;28;20544;-46
2021/07/26 08:19:28;;;;;;;7.85;6.07;;;;;;;;;;5056113;28;20029;-45
2021/07/26 08:21:54;;;;;;;14.40;6.35;;;;;;;;;;5056270;28;20021;-45
2021/07/26 08:24:20;;;;;;;20.40;6.10;;;;;;;;;;5055946;28;20066;-45
2021/07/26 08:26:47;;;;;;;13.23;6.13;;;;;;;;;;5056189;28;20047;-46
2021/07/26 08:29:13;;;;;;;13.38;6.20;;;;;;;;;;5055922;28;20100;-45
2021/07/26 08:31:39;;;;;;;12.35;5.93;;;;;;;;;;5055917;28;20032;-46
2021/07/26 08:34:05;;;;;;;11.00;6.32;;;;;;;;;;5055762;28;20025;-45
2021/07/26 08:36:31;;;;;;;14.52;7.07;;;;;;;;;;5055972;28;20028;-45
2021/07/26 08:38:58;;;;;;;11.15;6.30;;;;;;;;;;5055719;28;20031;-44
2021/07/26 08:41:24;;;;;;;15.70;6.93;;;;;;;;;;5055460;28;20484;-46
2021/07/26 08:43:50;;;;;;;13.18;6.82;;;;;;;;;;5055591;28;20029;-45
2021/07/26 08:46:20;;;;;;;8.77;6.70;;;;;;;;;;5054264;28;20079;-45
2021/07/26 08:48:47;;;;;;;10.07;6.30;;;;;;;;;;5055493;28;20068;-44
2021/07/26 08:51:15;;;;;;;12.35;6.38;;;;;;;;;;5055524;28;20044;-46
2021/07/26 08:53:43;;;;;;;9.52;6.30;;;;;;;;;;5055598;28;20107;-46
2021/07/26 08:56:09;;;;;;;11.35;6.65;;;;;;;;;;5055356;28;20025;-45
2021/07/26 08:58:36;;;;;;;12.05;6.65;;;;;;;;;;5055234;28;20028;-46
2021/07/26 09:01:02;;;;;;;12.55;6.55;;;;;;;;;;5055642;28;20478;-46
2021/07/26 09:03:28;;;;;;;11.65;6.53;;;;;;;;;;5055345;28;20025;-45
2021/07/26 09:05:54;;;;;;;11.45;6.90;;;;;;;;;;5055126;28;20047;-46
2021/07/26 09:08:20;;;;;;;10.05;6.45;;;;;;;;;;5055040;28;20029;-46
2021/07/26 09:10:46;;;;;;;12.65;6.95;;;;;;;;;;5055134;28;20488;-46
2021/07/26 09:13:12;;;;;;;9.60;6.22;;;;;;;;;;5054952;28;20040;-45
2021/07/26 09:15:43;;;;;;;8.00;6.45;;;;;;;;;;5054897;28;20565;-46
2021/07/26 09:18:10;;;;;;;9.90;6.72;;;;;;;;;;5054947;28;20073;-45
2021/07/26 09:20:39;;;;;;;14.18;7.05;;;;;;;;;;5054937;28;20025;-45
2021/07/26 09:23:15;;;;;;;11.80;7.43;;;;;;;;;;5054969;28;20104;-45
2021/07/26 09:25:44;;;;;;;10.93;6.32;;;;;;;;;;5055052;28;20037;-45
2021/07/26 09:28:13;;;;;;;9.63;6.97;;;;;;;;;;5055217;28;20393;-45
2021/07/26 09:30:47;;;;;;;10.50;7.03;;;;;;;;;;5054520;28;20025;-46
2021/07/26 09:33:16;;;;;;;11.38;6.78;;;;;;;;;;5054833;28;20044;-45
2021/07/26 09:35:43;;;;;;;10.50;7.25;;;;;;;;;;5054421;28;20025;-45
2021/07/26 09:38:09;;;;;;;10.75;7.47;;;;;;;;;;5054583;28;20076;-46
2021/07/26 09:40:36;;;;;;;19.65;7.45;;;;;;;;;;5054696;28;20397;-45
2021/07/26 09:43:19;;;;;;;14.88;7.65;;;;;;;;;;5054445;28;20059;-45
2021/07/26 09:45:45;;;;;;;12.07;7.47;;;;;;;;;;5054195;28;20065;-45
2021/07/26 09:48:13;;;;;;;11.82;7.20;;;;;;;;;;5052984;28;20044;-45
2021/07/26 09:50:40;;;;;;;13.77;7.28;;;;;;;;;;5054799;28;20017;-45
2021/07/26 09:53:10;;;;;;;16.73;6.97;;;;;;;;;;5054638;28;20029;-45
2021/07/26 09:55:38;;;;;;;12.23;7.20;;;;;;;;;;5054535;28;20029;-45
2021/07/26 09:58:05;;;;;;;15.80;7.35;;;;;;;;;;5054160;28;20025;-45
2021/07/26 10:00:32;;;;;;;12.45;7.50;;;;;;;;;;5054297;28;20056;-44
2021/07/26 10:02:58;;;;;;;15.30;7.05;;;;;;;;;;5054333;28;20100;-45
2021/07/26 10:05:29;;;;;;;9.90;7.20;;;;;;;;;;5054324;28;20120;-45
2021/07/26 10:07:55;;;;;;;14.25;6.68;;;;;;;;;;5054142;28;20078;-44
2021/07/26 10:10:22;;;;;;;13.43;5.75;;;;;;;;;;5054247;28;20036;-45
2021/07/26 10:12:49;;;;;;;14.48;6.40;;;;;;;;;;5054071;28;20067;-45
2021/07/26 10:15:16;;;;;;;10.20;5.57;;;;;;;;;;5053599;28;20056;-44
2021/07/26 10:17:42;;;;;;;9.13;6.28;;;;;;;;;;5053792;28;20376;-46
2021/07/26 10:20:09;;;;;;;10.98;6.15;;;;;;;;;;5053853;28;20039;-46
2021/07/26 10:22:35;;;;;;;13.82;6.28;;;;;;;;;;5054060;28;20029;-43
2021/07/26 10:25:06;;;;;;;11.52;6.10;;;;;;;;;;5053925;28;20058;-46
2021/07/26 10:27:33;;;;;;;10.57;6.40;;;;;;;;;;5053704;28;20028;-45
2021/07/26 10:30:00;;;;;;;9.60;5.53;;;;;;;;;;5053718;28;20025;-45
2021/07/26 10:32:30;;;;;;;10.93;7.28;;;;;;;;;;5053437;28;20381;-45
2021/07/26 10:35:00;;;;;;;10.98;6.00;;;;;;;;;;5053859;28;20021;-42
2021/07/26 10:37:41;;;;;;;12.02;5.95;;;;;;;;;;5053786;28;20032;-45
2021/07/26 10:40:26;;;;;;;10.52;5.93;;;;;;;;;;5053702;28;20043;-44
2021/07/26 10:43:00;;;;;;;13.93;6.28;;;;;;;;;;5053216;28;20025;-44
2021/07/26 10:45:34;;;;;;;8.68;6.07;;;;;;;;;;5053154;28;20389;-44
2021/07/26 10:48:19;;;;;;;11.70;5.80;;;;;;;;;;5053537;28;20036;-43
2021/07/26 10:50:45;;;;;;;7.97;6.45;;;;;;;;;;5053901;28;20362;-46
2021/07/26 10:53:11;;;;;;;12.50;5.70;;;;;;;;;;5053395;28;20037;-44
2021/07/26 10:55:56;;;;;;;9.77;6.82;;;;;;;;;;5053348;28;20469;-45
2021/07/26 10:58:42;;;;;;;10.85;5.88;;;;;;;;;;5053138;28;20052;-45
2021/07/26 11:01:21;;;;;;;11.80;6.60;;;;;;;;;;5049741;28;20069;-44
2021/07/26 11:03:48;;;;;;;15.77;6.63;;;;;;;;;;5053164;28;20048;-45
2021/07/26 11:06:32;;;;;;;12.00;6.25;;;;;;;;;;5053209;28;20116;-46
2021/07/26 11:09:17;;;;;;;10.80;5.80;;;;;;;;;;5055404;28;20032;-44
2021/07/26 11:11:43;;;;;;;10.95;6.38;;;;;;;;;;5057240;28;20036;-44
2021/07/26 11:14:11;;;;;;;9.48;6.10;;;;;;;;;;5057287;28;20029;-44
2021/07/26 11:16:50;;;;;;;10.40;6.55;;;;;;;;;;5057204;28;20049;-44
2021/07/26 11:19:34;;;;;;;11.30;6.28;;;;;;;;;;5056169;28;20384;-44
2021/07/26 11:22:01;;;;;;;15.65;7.72;;;;;;;;;;5057159;28;20031;-45
2021/07/26 11:24:39;;;;;;;10.95;7.53;;;;;;;;;;5057118;28;20021;-45
2021/07/26 11:27:06;;;;;;;12.07;6.68;;;;;;;;;;5056824;28;20040;-45
2021/07/26 11:29:32;;;;;;;14.20;6.70;;;;;;;;;;5056133;28;20049;-44
2021/07/26 11:31:58;;;;;;;10.10;5.90;;;;;;;;;;5056413;28;20053;-44
2021/07/26 11:34:28;;;;;;;14.93;6.90;;;;;;;;;;5056102;28;20029;-44
2021/07/26 11:37:09;;;;;;;13.35;7.10;;;;;;;;;;5056071;28;20493;-44
2021/07/26 11:39:52;;;;;;;12.68;7.25;;;;;;;;;;5053967;28;20075;-44
2021/07/26 11:42:28;;;;;;;13.07;8.52;;;;;;;;;;5054009;28;20059;-45
2021/07/26 11:44:54;;;;;;;16.02;6.75;;;;;;;;;;5055960;28;20025;-45
2021/07/26 11:47:29;;;;;;;14.38;7.78;;;;;;;;;;5056232;28;20504;-45
2021/07/26 11:49:56;;;;;;;21.52;11.18;;;;;;;;;;5056033;28;20100;-44
2021/07/26 11:52:22;;;;;;;16.58;7.43;;;;;;;;;;5056335;28;20466;-44
2021/07/26 11:54:48;;;;;;;19.15;9.52;;;;;;;;;;5056543;28;20036;-44
2021/07/26 11:57:14;;;;;;;14.25;8.48;;;;;;;;;;5056371;28;20029;-44
2021/07/26 11:59:47;;;;;;;21.75;14.43;;;;;;;;;;5056252;28;20082;-44
2021/07/26 12:02:13;;;;;;;10.10;6.57;;;;;;;;;;5056267;28;20029;-44
2021/07/26 12:04:41;;;;;;;12.90;7.20;;;;;;;;;;5056203;28;20021;-43
2021/07/26 12:07:08;;;;;;;11.30;7.55;;;;;;;;;;5056245;28;20055;-44
2021/07/26 12:09:35;;;;;;;16.85;9.25;;;;;;;;;;5056312;28;20071;-44
2021/07/26 12:12:11;;;;;;;19.42;11.35;;;;;;;;;;5056093;28;20025;-44
2021/07/26 12:14:38;;;;;;;12.02;7.43;;;;;;;;;;5055484;28;20048;-44
2021/07/26 12:17:09;;;;;;;12.98;7.15;;;;;;;;;;5056433;28;20043;-44
2021/07/26 12:19:40;;;;;;;12.35;6.97;;;;;;;;;;5055527;28;20013;-43
2021/07/26 12:22:19;;;;;;;10.07;6.88;;;;;;;;;;5056093;28;20029;-44
2021/07/26 12:24:46;;;;;;;20.05;11.48;;;;;;;;;;5055813;28;20503;-43
2021/07/26 12:27:25;;;;;;;13.77;7.40;;;;;;;;;;5055630;28;20037;-44
2021/07/26 12:29:58;;;;;;;12.13;7.10;;;;;;;;;;5055587;28;20511;-44
2021/07/26 12:32:24;;;;;;;11.65;6.70;;;;;;;;;;5055627;28;20480;-43
2021/07/26 12:35:09;;;;;;;14.40;9.90;;;;;;;;;;5055804;28;20017;-44
2021/07/26 12:37:35;;;;;;;13.00;6.35;;;;;;;;;;5055700;28;20381;-44
2021/07/26 12:40:16;;;;;;;12.38;7.00;;;;;;;;;;5055613;28;20096;-46
2021/07/26 12:42:43;;;;;;;19.27;7.35;;;;;;;;;;5055472;28;20053;-47
2021/07/26 12:45:23;;;;;;;13.50;6.43;;;;;;;;;;5055432;28;20043;-50
2021/07/26 12:47:50;;;;;;;12.35;6.68;;;;;;;;;;5055509;28;20116;-45
2021/07/26 12:50:16;;;;;;;12.27;7.35;;;;;;;;;;5055560;28;20096;-43
2021/07/26 12:52:43;;;;;;;12.25;6.57;;;;;;;;;;5055385;28;20033;-44
2021/07/26 12:55:09;;;;;;;10.18;6.63;;;;;;;;;;5054165;28;20120;-49
2021/07/26 12:57:35;;;;;;;13.57;6.35;;;;;;;;;;5055366;28;20033;-42
2021/07/26 13:00:01;;;;;;;12.75;6.90;;;;;;;;;;5055374;28;20017;-43
2021/07/26 13:02:29;;;;;;;12.98;6.45;;;;;;;;;;5055128;28;20485;-43
2021/07/26 13:04:55;;;;;;;16.05;6.47;;;;;;;;;;5055113;28;20021;-44
2021/07/26 13:07:21;;;;;;;11.63;6.68;;;;;;;;;;5055063;28;20143;-43
2021/07/26 13:09:48;;;;;;;12.75;6.28;;;;;;;;;;5055092;28;20024;-44
2021/07/26 13:12:14;;;;;;;12.68;9.48;;;;;;;;;;5055246;28;20032;-45
2021/07/26 13:14:40;;;;;;;13.38;6.97;;;;;;;;;;5054591;28;20029;-44
2021/07/26 13:17:06;;;;;;;15.25;7.60;;;;;;;;;;5054860;28;20067;-44
2021/07/26 13:19:33;;;;;;;14.27;6.97;;;;;;;;;;5054977;28;20116;-45
2021/07/26 13:22:03;;;;;;;17.95;7.28;;;;;;;;;;5054681;28;20024;-44
2021/07/26 13:24:29;;;;;;;11.98;7.10;;;;;;;;;;5054720;28;20017;-44
2021/07/26 13:26:55;;;;;;;14.15;7.10;;;;;;;;;;5054698;28;20044;-45
2021/07/26 13:29:22;;;;;;;14.30;7.55;;;;;;;;;;5054613;28;20092;-44
2021/07/26 13:31:48;;;;;;;16.98;7.30;;;;;;;;;;5053884;28;20032;-45
2021/07/26 13:34:14;;;;;;;14.48;7.03;;;;;;;;;;5054572;28;20063;-45
2021/07/26 13:36:42;;;;;;;12.95;7.00;;;;;;;;;;5054539;28;20029;-45
2021/07/26 13:39:10;;;;;;;12.93;6.80;;;;;;;;;;5054500;28;20021;-46
2021/07/26 13:41:38;;;;;;;16.20;7.35;;;;;;;;;;5054491;28;20041;-46
2021/07/26 13:44:04;;;;;;;14.73;6.57;;;;;;;;;;5054316;28;20197;-44
2021/07/26 13:46:30;;;;;;;12.57;6.47;;;;;;;;;;5054004;28;20489;-46
2021/07/26 13:48:56;;;;;;;15.60;6.85;;;;;;;;;;5054303;28;20036;-46
2021/07/26 13:51:22;;;;;;;16.50;7.15;;;;;;;;;;5054264;28;20052;-44
2021/07/26 13:53:49;;;;;;;14.52;6.15;;;;;;;;;;5054153;28;20028;-45
2021/07/26 13:56:15;;;;;;;9.57;6.25;;;;;;;;;;5053930;28;20532;-43
2021/07/26 13:58:41;;;;;;;13.40;6.07;;;;;;;;;;5054057;28;20021;-46
2021/07/26 14:01:07;;;;;;;14.35;6.18;;;;;;;;;;5053906;28;20027;-45
2021/07/26 14:03:33;;;;;;;11.93;6.47;;;;;;;;;;5052895;28;20028;-44
2021/07/26 14:06:01;;;;;;;13.48;6.30;;;;;;;;;;5053801;28;20060;-45
2021/07/26 14:08:27;;;;;;;14.90;6.30;;;;;;;;;;5053891;28;20036;-44
2021/07/26 14:10:56;;;;;;;12.32;6.32;;;;;;;;;;5053905;28;20127;-45
2021/07/26 14:13:22;;;;;;;11.07;6.90;;;;;;;;;;5052809;28;20051;-45
2021/07/26 14:15:48;;;;;;;12.13;6.47;;;;;;;;;;5053357;28;20045;-46
2021/07/26 14:18:17;;;;;;;14.10;6.47;;;;;;;;;;5053793;28;20047;-46
2021/07/26 14:20:43;;;;;;;11.02;6.00;;;;;;;;;;5053682;28;20033;-45
2021/07/26 14:23:09;;;;;;;14.00;5.80;;;;;;;;;;5053832;28;20071;-44
2021/07/26 14:25:35;;;;;;;14.55;6.78;;;;;;;;;;5053472;28;20060;-44
2021/07/26 14:28:01;;;;;;;16.38;5.93;;;;;;;;;;5053738;28;20021;-43
2021/07/26 14:30:28;;;;;;;11.27;6.35;;;;;;;;;;5053579;28;20021;-43
2021/07/26 14:32:54;;;;;;;8.93;5.88;;;;;;;;;;5053565;28;20500;-44
2021/07/26 14:35:20;;;;;;;15.32;6.63;;;;;;;;;;5053687;28;20090;-50
2021/07/26 14:37:47;;;;;;;11.02;6.68;;;;;;;;;;5053633;28;20362;-44
2021/07/26 14:40:13;;;;;;;13.15;6.82;;;;;;;;;;5053291;28;20032;-45